sensor_id;sensor_type;location;lat;lon;timestamp;pressure;altitude;pressure_sealevel;temperature;humidity
69879;BME280;57161;43.136;24.706;2022-07-23T00:00:53;99219.28;;;22.42;54.45
69879;BME280;57161;43.136;24.706;2022-07-23T00:03:18;99212.00;;;22.39;54.46
69879;BME280;57161;43.136;24.706;2022-07-23T00:05:44;99218.72;;;22.32;54.58
69879;BME280;57161;43.136;24.706;2022-07-23T00:08:10;99217.47;;;22.35;54.53
69879;BME280;57161;43.136;24.706;2022-07-23T00:10:35;99215.03;;;22.29;54.58
69879;BME280;57161;43.136;24.706;2022-07-23T00:13:01;99221.56;;;22.32;54.55
69879;BME280;57161;43.136;24.706;2022-07-23T00:15:27;99221.09;;;22.24;54.84
69879;BME280;57161;43.136;24.706;2022-07-23T00:17:52;99199.13;;;22.12;54.82
69879;BME280;57161;43.136;24.706;2022-07-23T00:20:18;99207.19;;;22.16;54.68
69879;BME280;57161;43.136;24.706;2022-07-23T00:22:52;99208.13;;;22.21;54.57
69879;BME280;57161;43.136;24.706;2022-07-23T00:25:18;99218.78;;;22.20;54.54
69879;BME280;57161;43.136;24.706;2022-07-23T00:27:44;99217.06;;;22.15;54.64
69879;BME280;57161;43.136;24.706;2022-07-23T00:30:10;99219.44;;;22.07;55.00
69879;BME280;57161;43.136;24.706;2022-07-23T00:32:57;99220.06;;;22.05;55.06
69879;BME280;57161;43.136;24.706;2022-07-23T00:35:25;99212.53;;;21.98;55.19
69879;BME280;57161;43.136;24.706;2022-07-23T00:37:51;99198.88;;;21.83;55.21
69879;BME280;57161;43.136;24.706;2022-07-23T00:40:16;99213.44;;;21.89;55.50
69879;BME280;57161;43.136;24.706;2022-07-23T00:42:42;99210.69;;;21.91;55.42
69879;BME280;57161;43.136;24.706;2022-07-23T00:45:09;99201.34;;;21.77;55.65
69879;BME280;57161;43.136;24.706;2022-07-23T00:47:35;99213.56;;;21.79;55.73
69879;BME280;57161;43.136;24.706;2022-07-23T00:50:01;99211.53;;;21.68;56.19
69879;BME280;57161;43.136;24.706;2022-07-23T00:52:26;99199.41;;;21.68;56.12
69879;BME280;57161;43.136;24.706;2022-07-23T00:54:52;99203.13;;;21.58;56.44
69879;BME280;57161;43.136;24.706;2022-07-23T00:57:18;99206.59;;;21.57;56.18
69879;BME280;57161;43.136;24.706;2022-07-23T00:59:44;99198.94;;;21.60;56.36
69879;BME280;57161;43.136;24.706;2022-07-23T01:02:09;99171.81;;;21.33;56.27
69879;BME280;57161;43.136;24.706;2022-07-23T01:04:35;99205.25;;;21.46;56.35
69879;BME280;57161;43.136;24.706;2022-07-23T01:07:01;99198.25;;;21.36;56.83
69879;BME280;57161;43.136;24.706;2022-07-23T01:09:27;99197.63;;;21.37;56.65
69879;BME280;57161;43.136;24.706;2022-07-23T01:11:54;99188.63;;;21.29;56.76
69879;BME280;57161;43.136;24.706;2022-07-23T01:14:20;99198.88;;;21.34;57.08
69879;BME280;57161;43.136;24.706;2022-07-23T01:16:47;99197.25;;;21.31;56.96
69879;BME280;57161;43.136;24.706;2022-07-23T01:19:14;99190.94;;;21.21;56.98
69879;BME280;57161;43.136;24.706;2022-07-23T01:21:41;99201.84;;;21.24;56.91
69879;BME280;57161;43.136;24.706;2022-07-23T01:24:08;99201.06;;;21.24;56.96
69879;BME280;57161;43.136;24.706;2022-07-23T01:26:35;99194.31;;;21.06;57.60
69879;BME280;57161;43.136;24.706;2022-07-23T01:29:01;99191.56;;;21.08;57.33
69879;BME280;57161;43.136;24.706;2022-07-23T01:31:26;99165.78;;;20.92;57.65
69879;BME280;57161;43.136;24.706;2022-07-23T01:33:52;99189.47;;;21.08;57.27
69879;BME280;57161;43.136;24.706;2022-07-23T01:36:18;99191.34;;;21.15;57.38
69879;BME280;57161;43.136;24.706;2022-07-23T01:38:44;99193.69;;;21.19;57.20
69879;BME280;57161;43.136;24.706;2022-07-23T01:41:09;99179.59;;;21.09;57.19
69879;BME280;57161;43.136;24.706;2022-07-23T01:43:35;99186.13;;;21.12;57.15
69879;BME280;57161;43.136;24.706;2022-07-23T01:46:00;99194.66;;;21.12;57.10
69879;BME280;57161;43.136;24.706;2022-07-23T01:48:26;99191.56;;;21.08;57.24
69879;BME280;57161;43.136;24.706;2022-07-23T01:50:51;99184.78;;;21.13;56.92
69879;BME280;57161;43.136;24.706;2022-07-23T01:53:17;99183.28;;;21.12;56.91
69879;BME280;57161;43.136;24.706;2022-07-23T01:55:43;99174.41;;;21.06;56.86
69879;BME280;57161;43.136;24.706;2022-07-23T01:58:08;99170.22;;;21.07;56.95
69879;BME280;57161;43.136;24.706;2022-07-23T02:00:34;99196.63;;;21.21;56.44
69879;BME280;57161;43.136;24.706;2022-07-23T02:03:00;99168.97;;;21.10;56.80
69879;BME280;57161;43.136;24.706;2022-07-23T02:05:26;99186.63;;;21.20;56.83
69879;BME280;57161;43.136;24.706;2022-07-23T02:07:54;99208.38;;;21.15;56.76
69879;BME280;57161;43.136;24.706;2022-07-23T02:10:20;99184.06;;;21.01;56.90
69879;BME280;57161;43.136;24.706;2022-07-23T02:12:46;99199.47;;;21.09;56.75
69879;BME280;57161;43.136;24.706;2022-07-23T02:15:12;99202.59;;;21.02;57.19
69879;BME280;57161;43.136;24.706;2022-07-23T02:17:37;99202.47;;;21.00;57.30
69879;BME280;57161;43.136;24.706;2022-07-23T02:20:04;99198.63;;;20.95;57.32
69879;BME280;57161;43.136;24.706;2022-07-23T02:22:30;99194.91;;;20.92;56.88
69879;BME280;57161;43.136;24.706;2022-07-23T02:24:55;99200.97;;;20.98;57.26
69879;BME280;57161;43.136;24.706;2022-07-23T02:27:21;99197.03;;;20.92;57.02
69879;BME280;57161;43.136;24.706;2022-07-23T02:29:47;99199.22;;;20.93;57.42
69879;BME280;57161;43.136;24.706;2022-07-23T02:32:12;99194.44;;;20.84;57.12
69879;BME280;57161;43.136;24.706;2022-07-23T02:34:38;99200.97;;;20.87;57.31
69879;BME280;57161;43.136;24.706;2022-07-23T02:37:03;99210.59;;;20.93;57.17
69879;BME280;57161;43.136;24.706;2022-07-23T02:39:29;99187.75;;;20.91;56.88
69879;BME280;57161;43.136;24.706;2022-07-23T02:41:54;99197.88;;;20.94;57.00
69879;BME280;57161;43.136;24.706;2022-07-23T02:44:19;99206.53;;;20.85;57.50
69879;BME280;57161;43.136;24.706;2022-07-23T02:46:45;99201.81;;;20.78;57.68
69879;BME280;57161;43.136;24.706;2022-07-23T02:49:10;99203.19;;;20.77;57.89
69879;BME280;57161;43.136;24.706;2022-07-23T02:51:36;99206.25;;;20.81;57.53
69879;BME280;57161;43.136;24.706;2022-07-23T02:54:01;99197.38;;;20.75;57.45
69879;BME280;57161;43.136;24.706;2022-07-23T02:56:27;99186.13;;;20.65;57.61
69879;BME280;57161;43.136;24.706;2022-07-23T02:58:52;99195.38;;;20.65;57.53
69879;BME280;57161;43.136;24.706;2022-07-23T03:01:18;99200.59;;;20.69;57.69
69879;BME280;57161;43.136;24.706;2022-07-23T03:03:43;99216.50;;;20.74;57.52
69879;BME280;57161;43.136;24.706;2022-07-23T03:06:09;99210.19;;;20.64;57.54
69879;BME280;57161;43.136;24.706;2022-07-23T03:08:35;99215.03;;;20.73;57.42
69879;BME280;57161;43.136;24.706;2022-07-23T03:11:00;99221.81;;;20.68;57.46
69879;BME280;57161;43.136;24.706;2022-07-23T03:13:25;99225.03;;;20.74;57.41
69879;BME280;57161;43.136;24.706;2022-07-23T03:15:51;99207.13;;;20.60;57.31
69879;BME280;57161;43.136;24.706;2022-07-23T03:18:16;99235.53;;;20.72;57.64
69879;BME280;57161;43.136;24.706;2022-07-23T03:20:42;99219.44;;;20.64;57.45
69879;BME280;57161;43.136;24.706;2022-07-23T03:23:07;99221.66;;;20.54;57.76
69879;BME280;57161;43.136;24.706;2022-07-23T03:25:33;99223.88;;;20.56;57.61
69879;BME280;57161;43.136;24.706;2022-07-23T03:27:58;99237.38;;;20.67;57.45
69879;BME280;57161;43.136;24.706;2022-07-23T03:30:24;99226.84;;;20.58;57.46
69879;BME280;57161;43.136;24.706;2022-07-23T03:32:49;99227.84;;;20.62;57.34
69879;BME280;57161;43.136;24.706;2022-07-23T03:35:14;99241.81;;;20.70;57.37
69879;BME280;57161;43.136;24.706;2022-07-23T03:37:40;99229.44;;;20.65;57.32
69879;BME280;57161;43.136;24.706;2022-07-23T03:40:06;99244.91;;;20.74;57.18
69879;BME280;57161;43.136;24.706;2022-07-23T03:42:32;99242.31;;;20.78;57.40
69879;BME280;57161;43.136;24.706;2022-07-23T03:44:57;99250.47;;;20.84;56.80
69879;BME280;57161;43.136;24.706;2022-07-23T03:47:23;99248.88;;;20.92;56.84
69879;BME280;57161;43.136;24.706;2022-07-23T03:49:49;99249.63;;;20.93;56.49
69879;BME280;57161;43.136;24.706;2022-07-23T03:52:15;99253.31;;;20.95;56.53
69879;BME280;57161;43.136;24.706;2022-07-23T03:54:40;99249.00;;;20.94;56.76
69879;BME280;57161;43.136;24.706;2022-07-23T03:57:06;99259.63;;;20.94;56.76
69879;BME280;57161;43.136;24.706;2022-07-23T03:59:31;99256.91;;;20.96;56.61
69879;BME280;57161;43.136;24.706;2022-07-23T04:01:57;99247.63;;;20.95;56.46
69879;BME280;57161;43.136;24.706;2022-07-23T04:04:22;99248.13;;;20.92;56.34
69879;BME280;57161;43.136;24.706;2022-07-23T04:06:48;99257.66;;;21.08;56.39
69879;BME280;57161;43.136;24.706;2022-07-23T04:09:13;99239.63;;;21.04;56.15
69879;BME280;57161;43.136;24.706;2022-07-23T04:11:39;99257.03;;;21.10;55.96
69879;BME280;57161;43.136;24.706;2022-07-23T04:14:04;99265.31;;;21.17;56.12
69879;BME280;57161;43.136;24.706;2022-07-23T04:16:30;99250.25;;;21.03;56.28
69879;BME280;57161;43.136;24.706;2022-07-23T04:18:56;99259.03;;;21.19;56.09
69879;BME280;57161;43.136;24.706;2022-07-23T04:21:23;99262.75;;;21.33;55.66
69879;BME280;57161;43.136;24.706;2022-07-23T04:23:49;99271.13;;;21.31;55.68
69879;BME280;57161;43.136;24.706;2022-07-23T04:26:14;99257.31;;;21.37;55.65
69879;BME280;57161;43.136;24.706;2022-07-23T04:28:40;99253.34;;;21.42;55.63
69879;BME280;57161;43.136;24.706;2022-07-23T04:31:05;99264.19;;;21.57;55.46
69879;BME280;57161;43.136;24.706;2022-07-23T04:33:31;99278.28;;;21.67;55.51
69879;BME280;57161;43.136;24.706;2022-07-23T04:35:56;99282.72;;;21.82;55.32
69879;BME280;57161;43.136;24.706;2022-07-23T04:38:22;99290.81;;;21.99;55.13
69879;BME280;57161;43.136;24.706;2022-07-23T04:40:47;99286.00;;;22.13;54.76
69879;BME280;57161;43.136;24.706;2022-07-23T04:43:13;99270.63;;;22.19;54.41
69879;BME280;57161;43.136;24.706;2022-07-23T04:45:38;99280.72;;;22.33;54.01
69879;BME280;57161;43.136;24.706;2022-07-23T04:48:04;99298.81;;;22.52;54.12
69879;BME280;57161;43.136;24.706;2022-07-23T04:50:29;99290.56;;;22.69;53.70
69879;BME280;57161;43.136;24.706;2022-07-23T04:52:55;99281.59;;;22.75;52.90
69879;BME280;57161;43.136;24.706;2022-07-23T04:55:20;99289.69;;;22.92;53.00
69879;BME280;57161;43.136;24.706;2022-07-23T04:57:46;99279.91;;;22.95;52.77
69879;BME280;57161;43.136;24.706;2022-07-23T05:00:12;99295.97;;;23.16;52.66
69879;BME280;57161;43.136;24.706;2022-07-23T05:02:37;99292.31;;;23.27;52.25
69879;BME280;57161;43.136;24.706;2022-07-23T05:05:03;99292.63;;;23.33;52.23
69879;BME280;57161;43.136;24.706;2022-07-23T05:07:28;99288.19;;;23.44;52.19
69879;BME280;57161;43.136;24.706;2022-07-23T05:09:54;99288.72;;;23.54;51.88
69879;BME280;57161;43.136;24.706;2022-07-23T05:12:19;99297.50;;;23.72;51.75
69879;BME280;57161;43.136;24.706;2022-07-23T05:14:45;99291.78;;;23.86;51.64
69879;BME280;57161;43.136;24.706;2022-07-23T05:17:10;99287.72;;;24.05;51.68
69879;BME280;57161;43.136;24.706;2022-07-23T05:19:36;99292.56;;;24.16;51.17
69879;BME280;57161;43.136;24.706;2022-07-23T05:22:02;99293.38;;;24.32;50.99
69879;BME280;57161;43.136;24.706;2022-07-23T05:24:27;99298.31;;;24.45;50.66
69879;BME280;57161;43.136;24.706;2022-07-23T05:26:53;99301.13;;;24.59;50.30
69879;BME280;57161;43.136;24.706;2022-07-23T05:29:18;99297.44;;;24.72;50.42
69879;BME280;57161;43.136;24.706;2022-07-23T05:31:44;99291.56;;;24.84;49.77
69879;BME280;57161;43.136;24.706;2022-07-23T05:34:09;99293.53;;;24.95;49.65
69879;BME280;57161;43.136;24.706;2022-07-23T05:36:35;99290.72;;;25.11;49.35
69879;BME280;57161;43.136;24.706;2022-07-23T05:39:01;99293.41;;;25.23;49.55
69879;BME280;57161;43.136;24.706;2022-07-23T05:41:26;99293.91;;;25.35;49.21
69879;BME280;57161;43.136;24.706;2022-07-23T05:43:52;99298.81;;;25.48;49.20
69879;BME280;57161;43.136;24.706;2022-07-23T05:46:17;99299.34;;;25.60;48.76
69879;BME280;57161;43.136;24.706;2022-07-23T05:48:43;99303.75;;;25.79;48.50
69879;BME280;57161;43.136;24.706;2022-07-23T05:51:11;99296.00;;;25.82;48.02
69879;BME280;57161;43.136;24.706;2022-07-23T05:53:36;99305.56;;;26.04;47.81
69879;BME280;57161;43.136;24.706;2022-07-23T05:56:03;99292.13;;;26.09;47.67
69879;BME280;57161;43.136;24.706;2022-07-23T05:58:28;99310.16;;;26.29;47.50
69879;BME280;57161;43.136;24.706;2022-07-23T06:00:54;99301.28;;;26.39;47.04
69879;BME280;57161;43.136;24.706;2022-07-23T06:03:19;99310.91;;;26.47;46.97
69879;BME280;57161;43.136;24.706;2022-07-23T06:05:45;99314.78;;;26.54;46.59
69879;BME280;57161;43.136;24.706;2022-07-23T06:08:10;99315.00;;;26.60;46.73
69879;BME280;57161;43.136;24.706;2022-07-23T06:10:36;99307.06;;;26.76;46.52
69879;BME280;57161;43.136;24.706;2022-07-23T06:13:02;99305.09;;;26.81;46.13
69879;BME280;57161;43.136;24.706;2022-07-23T06:15:27;99310.16;;;27.00;46.13
69879;BME280;57161;43.136;24.706;2022-07-23T06:17:53;99306.06;;;27.05;45.79
69879;BME280;57161;43.136;24.706;2022-07-23T06:20:18;99308.75;;;27.19;45.75
69879;BME280;57161;43.136;24.706;2022-07-23T06:22:44;99308.50;;;27.33;45.63
69879;BME280;57161;43.136;24.706;2022-07-23T06:25:09;99309.69;;;27.45;45.38
69879;BME280;57161;43.136;24.706;2022-07-23T06:27:35;99309.41;;;27.57;45.23
69879;BME280;57161;43.136;24.706;2022-07-23T06:30:00;99297.59;;;27.67;45.48
69879;BME280;57161;43.136;24.706;2022-07-23T06:32:26;99287.84;;;27.76;44.65
69879;BME280;57161;43.136;24.706;2022-07-23T06:34:51;99301.59;;;27.99;44.60
69879;BME280;57161;43.136;24.706;2022-07-23T06:37:17;99296.97;;;28.12;44.42
69879;BME280;57161;43.136;24.706;2022-07-23T06:39:42;99290.47;;;28.31;44.08
69879;BME280;57161;43.136;24.706;2022-07-23T06:42:08;99295.94;;;28.45;43.91
69879;BME280;57161;43.136;24.706;2022-07-23T06:44:35;99289.22;;;28.60;43.71
69879;BME280;57161;43.136;24.706;2022-07-23T06:47:01;99295.31;;;28.70;43.46
69879;BME280;57161;43.136;24.706;2022-07-23T06:49:26;99294.44;;;28.88;43.38
69879;BME280;57161;43.136;24.706;2022-07-23T06:51:52;99286.34;;;29.06;43.16
69879;BME280;57161;43.136;24.706;2022-07-23T06:54:17;99276.38;;;29.09;42.42
69879;BME280;57161;43.136;24.706;2022-07-23T06:56:42;99277.50;;;29.24;42.25
69879;BME280;57161;43.136;24.706;2022-07-23T06:59:08;99287.66;;;29.51;42.42
69879;BME280;57161;43.136;24.706;2022-07-23T07:01:34;99285.91;;;29.66;41.61
69879;BME280;57161;43.136;24.706;2022-07-23T07:03:59;99286.84;;;29.74;41.28
69879;BME280;57161;43.136;24.706;2022-07-23T07:06:25;99289.91;;;29.80;41.69
69879;BME280;57161;43.136;24.706;2022-07-23T07:08:50;99281.78;;;30.01;41.61
69879;BME280;57161;43.136;24.706;2022-07-23T07:11:16;99284.38;;;30.16;41.30
69879;BME280;57161;43.136;24.706;2022-07-23T07:13:41;99273.03;;;30.25;41.08
69879;BME280;57161;43.136;24.706;2022-07-23T07:16:07;99288.81;;;30.52;40.65
69879;BME280;57161;43.136;24.706;2022-07-23T07:18:32;99289.31;;;30.72;40.08
69879;BME280;57161;43.136;24.706;2022-07-23T07:20:58;99276.59;;;30.83;39.11
69879;BME280;57161;43.136;24.706;2022-07-23T07:23:23;99279.88;;;31.01;39.36
69879;BME280;57161;43.136;24.706;2022-07-23T07:25:49;99281.06;;;31.22;38.31
69879;BME280;57161;43.136;24.706;2022-07-23T07:28:15;99265.31;;;31.27;38.41
69879;BME280;57161;43.136;24.706;2022-07-23T07:30:40;99275.03;;;31.44;37.35
69879;BME280;57161;43.136;24.706;2022-07-23T07:33:06;99266.50;;;31.52;37.28
69879;BME280;57161;43.136;24.706;2022-07-23T07:35:31;99277.13;;;31.78;35.98
69879;BME280;57161;43.136;24.706;2022-07-23T07:38:00;99257.75;;;31.86;35.44
69879;BME280;57161;43.136;24.706;2022-07-23T07:40:26;99251.47;;;31.98;34.50
69879;BME280;57161;43.136;24.706;2022-07-23T07:42:53;99268.34;;;32.14;34.23
69879;BME280;57161;43.136;24.706;2022-07-23T07:45:21;99270.78;;;32.28;34.03
69879;BME280;57161;43.136;24.706;2022-07-23T07:47:47;99279.72;;;32.44;33.69
69879;BME280;57161;43.136;24.706;2022-07-23T07:50:13;99265.44;;;32.56;33.33
69879;BME280;57161;43.136;24.706;2022-07-23T07:52:39;99257.72;;;32.73;33.62
69879;BME280;57161;43.136;24.706;2022-07-23T07:55:05;99261.50;;;32.83;33.50
69879;BME280;57161;43.136;24.706;2022-07-23T07:57:31;99259.50;;;32.94;32.89
69879;BME280;57161;43.136;24.706;2022-07-23T07:59:57;99263.97;;;33.05;32.90
69879;BME280;57161;43.136;24.706;2022-07-23T08:02:23;99260.50;;;33.19;32.59
69879;BME280;57161;43.136;24.706;2022-07-23T08:04:49;99255.72;;;33.38;32.55
69879;BME280;57161;43.136;24.706;2022-07-23T08:07:15;99249.38;;;33.54;32.55
69879;BME280;57161;43.136;24.706;2022-07-23T08:09:41;99257.50;;;33.69;32.84
69879;BME280;57161;43.136;24.706;2022-07-23T08:12:06;99254.09;;;33.89;32.13
69879;BME280;57161;43.136;24.706;2022-07-23T08:14:32;99251.22;;;33.91;31.26
69879;BME280;57161;43.136;24.706;2022-07-23T08:16:57;99256.44;;;34.11;30.87
69879;BME280;57161;43.136;24.706;2022-07-23T08:19:23;99250.72;;;34.19;30.19
69879;BME280;57161;43.136;24.706;2022-07-23T08:21:48;99252.25;;;34.30;30.17
69879;BME280;57161;43.136;24.706;2022-07-23T08:24:14;99251.59;;;34.36;30.84
69879;BME280;57161;43.136;24.706;2022-07-23T08:26:39;99251.00;;;34.56;30.47
69879;BME280;57161;43.136;24.706;2022-07-23T08:29:06;99243.84;;;34.67;29.26
69879;BME280;57161;43.136;24.706;2022-07-23T08:31:31;99243.16;;;34.79;27.55
69879;BME280;57161;43.136;24.706;2022-07-23T08:33:59;99234.50;;;34.83;27.63
69879;BME280;57161;43.136;24.706;2022-07-23T08:36:24;99244.75;;;35.00;27.45
69879;BME280;57161;43.136;24.706;2022-07-23T08:38:53;99238.28;;;35.16;26.86
69879;BME280;57161;43.136;24.706;2022-07-23T08:41:19;99243.38;;;35.28;26.02
69879;BME280;57161;43.136;24.706;2022-07-23T08:43:45;99236.13;;;35.20;25.41
69879;BME280;57161;43.136;24.706;2022-07-23T08:46:10;99239.06;;;35.33;26.55
69879;BME280;57161;43.136;24.706;2022-07-23T08:48:37;99239.13;;;35.51;25.61
69879;BME280;57161;43.136;24.706;2022-07-23T08:51:04;99242.00;;;35.47;25.48
69879;BME280;57161;43.136;24.706;2022-07-23T08:53:31;99239.84;;;35.41;25.47
69879;BME280;57161;43.136;24.706;2022-07-23T08:56:02;99239.09;;;35.45;25.99
69879;BME280;57161;43.136;24.706;2022-07-23T08:58:29;99244.91;;;35.37;26.06
69879;BME280;57161;43.136;24.706;2022-07-23T09:00:59;99244.91;;;35.47;26.33
69879;BME280;57161;43.136;24.706;2022-07-23T09:03:29;99249.31;;;35.60;25.38
69879;BME280;57161;43.136;24.706;2022-07-23T09:05:57;99250.06;;;35.75;26.13
69879;BME280;57161;43.136;24.706;2022-07-23T09:08:25;99245.75;;;35.94;25.43
69879;BME280;57161;43.136;24.706;2022-07-23T09:10:59;99239.22;;;35.98;25.12
69879;BME280;57161;43.136;24.706;2022-07-23T09:13:58;99242.84;;;36.06;25.37
69879;BME280;57161;43.136;24.706;2022-07-23T09:16:27;99237.78;;;36.01;25.67
69879;BME280;57161;43.136;24.706;2022-07-23T09:18:59;99246.50;;;35.99;25.60
69879;BME280;57161;43.136;24.706;2022-07-23T09:21:35;99239.94;;;36.04;24.91
69879;BME280;57161;43.136;24.706;2022-07-23T09:24:09;99239.22;;;36.06;25.51
69879;BME280;57161;43.136;24.706;2022-07-23T09:26:42;99237.75;;;36.21;25.28
69879;BME280;57161;43.136;24.706;2022-07-23T09:36:40;99229.72;;;36.56;24.90
69879;BME280;57161;43.136;24.706;2022-07-23T09:39:06;99229.72;;;36.56;24.50
69879;BME280;57161;43.136;24.706;2022-07-23T09:44:17;99224.59;;;36.81;24.37
69879;BME280;57161;43.136;24.706;2022-07-23T09:46:44;99231.13;;;36.94;24.48
69879;BME280;57161;43.136;24.706;2022-07-23T09:49:18;99217.97;;;37.01;23.64
69879;BME280;57161;43.136;24.706;2022-07-23T09:54:38;99218.69;;;37.02;23.93
69879;BME280;57161;43.136;24.706;2022-07-23T09:57:10;99219.44;;;36.98;24.14
69879;BME280;57161;43.136;24.706;2022-07-23T09:59:40;99212.16;;;36.93;22.65
69879;BME280;57161;43.136;24.706;2022-07-23T10:02:07;99212.91;;;36.93;22.61
69879;BME280;57161;43.136;24.706;2022-07-23T10:04:33;99213.69;;;36.82;22.98
69879;BME280;57161;43.136;24.706;2022-07-23T10:07:02;99209.28;;;36.91;23.09
69879;BME280;57161;43.136;24.706;2022-07-23T10:09:34;99196.91;;;36.88;22.73
69879;BME280;57161;43.136;24.706;2022-07-23T10:12:02;99201.94;;;37.02;22.29
69879;BME280;57161;43.136;24.706;2022-07-23T10:14:45;99198.31;;;37.00;22.42
69879;BME280;57161;43.136;24.706;2022-07-23T10:17:11;99202.69;;;37.01;22.86
69879;BME280;57161;43.136;24.706;2022-07-23T10:19:37;99193.19;;;37.08;23.21
69879;BME280;57161;43.136;24.706;2022-07-23T10:22:09;99189.50;;;37.16;22.89
69879;BME280;57161;43.136;24.706;2022-07-23T10:33:23;99174.16;;;37.32;23.06
69879;BME280;57161;43.136;24.706;2022-07-23T10:36:19;99179.06;;;37.58;23.03
69879;BME280;57161;43.136;24.706;2022-07-23T10:38:57;99178.41;;;37.49;22.71
69879;BME280;57161;43.136;24.706;2022-07-23T10:41:37;99174.81;;;37.38;22.72
69879;BME280;57161;43.136;24.706;2022-07-23T10:44:15;99174.81;;;37.44;22.64
69879;BME280;57161;43.136;24.706;2022-07-23T10:46:55;99171.72;;;37.67;23.20
69879;BME280;57161;43.136;24.706;2022-07-23T10:49:26;99162.88;;;37.83;22.73
69879;BME280;57161;43.136;24.706;2022-07-23T10:52:19;99156.06;;;38.09;22.59
69879;BME280;57161;43.136;24.706;2022-07-23T10:57:26;99160.94;;;38.35;21.76
69879;BME280;57161;43.136;24.706;2022-07-23T11:02:41;99147.94;;;38.18;21.69
69879;BME280;57161;43.136;24.706;2022-07-23T11:05:11;99153.88;;;38.09;21.55
69879;BME280;57161;43.136;24.706;2022-07-23T11:10:51;99138.47;;;38.17;21.59
69879;BME280;57161;43.136;24.706;2022-07-23T11:13:26;99143.50;;;38.29;21.73
69879;BME280;57161;43.136;24.706;2022-07-23T11:31:56;99122.88;;;38.47;21.75
69879;BME280;57161;43.136;24.706;2022-07-23T11:34:31;99127.03;;;38.66;21.36
69879;BME280;57161;43.136;24.706;2022-07-23T11:36:57;99119.56;;;38.80;20.88
69879;BME280;57161;43.136;24.706;2022-07-23T11:39:25;99113.13;;;38.69;21.12
69879;BME280;57161;43.136;24.706;2022-07-23T11:41:54;99107.94;;;38.76;21.76
69879;BME280;57161;43.136;24.706;2022-07-23T11:44:27;99111.75;;;38.62;21.23
69879;BME280;57161;43.136;24.706;2022-07-23T11:47:06;99109.56;;;38.60;20.91
69879;BME280;57161;43.136;24.706;2022-07-23T11:49:32;99106.06;;;38.48;21.20
69879;BME280;57161;43.136;24.706;2022-07-23T11:52:17;99109.94;;;38.30;21.87
69879;BME280;57161;43.136;24.706;2022-07-23T11:54:55;99113.41;;;38.44;21.13
69879;BME280;57161;43.136;24.706;2022-07-23T11:57:28;99106.94;;;38.36;21.24
69879;BME280;57161;43.136;24.706;2022-07-23T12:00:06;99108.16;;;38.57;21.01
69879;BME280;57161;43.136;24.706;2022-07-23T12:02:34;99110.91;;;38.73;21.23
69879;BME280;57161;43.136;24.706;2022-07-23T12:04:59;99110.00;;;38.85;21.06
69879;BME280;57161;43.136;24.706;2022-07-23T12:07:33;99121.84;;;38.73;21.00
69879;BME280;57161;43.136;24.706;2022-07-23T12:10:30;99111.63;;;38.74;21.03
69879;BME280;57161;43.136;24.706;2022-07-23T12:12:56;99105.59;;;38.86;20.40
69879;BME280;57161;43.136;24.706;2022-07-23T12:15:29;99103.84;;;39.08;20.98
69879;BME280;57161;43.136;24.706;2022-07-23T12:17:57;99086.22;;;39.16;20.49
69879;BME280;57161;43.136;24.706;2022-07-23T12:20:29;99096.81;;;39.38;19.83
69879;BME280;57161;43.136;24.706;2022-07-23T12:22:57;99097.63;;;39.32;20.46
69879;BME280;57161;43.136;24.706;2022-07-23T12:25:35;99086.88;;;39.20;20.23
69879;BME280;57161;43.136;24.706;2022-07-23T12:28:07;99091.47;;;39.03;19.96
69879;BME280;57161;43.136;24.706;2022-07-23T12:32:59;99071.75;;;38.50;19.19
69879;BME280;57161;43.136;24.706;2022-07-23T12:35:35;99077.22;;;38.81;19.53
69879;BME280;57161;43.136;24.706;2022-07-23T12:38:10;99063.97;;;38.88;19.34
69879;BME280;57161;43.136;24.706;2022-07-23T12:40:49;99069.72;;;38.94;19.16
69879;BME280;57161;43.136;24.706;2022-07-23T12:43:33;99079.28;;;38.90;19.68
69879;BME280;57161;43.136;24.706;2022-07-23T12:46:11;99072.97;;;38.69;19.38
69879;BME280;57161;43.136;24.706;2022-07-23T12:48:49;99071.91;;;38.95;19.17
69879;BME280;57161;43.136;24.706;2022-07-23T12:51:21;99065.13;;;38.54;18.78
69879;BME280;57161;43.136;24.706;2022-07-23T12:56:27;99062.44;;;38.93;18.77
69879;BME280;57161;43.136;24.706;2022-07-23T13:06:33;99048.44;;;39.90;17.99
69879;BME280;57161;43.136;24.706;2022-07-23T13:09:00;99054.84;;;39.59;17.84
69879;BME280;57161;43.136;24.706;2022-07-23T13:11:26;99059.03;;;39.71;18.03
69879;BME280;57161;43.136;24.706;2022-07-23T13:13:51;99056.53;;;39.85;17.33
69879;BME280;57161;43.136;24.706;2022-07-23T13:16:17;99066.66;;;39.92;17.37
69879;BME280;57161;43.136;24.706;2022-07-23T13:18:42;99050.06;;;39.81;17.32
69879;BME280;57161;43.136;24.706;2022-07-23T13:21:08;99051.50;;;39.82;17.31
69879;BME280;57161;43.136;24.706;2022-07-23T13:23:33;99056.94;;;40.06;17.03
69879;BME280;57161;43.136;24.706;2022-07-23T13:25:59;99052.66;;;40.36;17.24
69879;BME280;57161;43.136;24.706;2022-07-23T13:28:24;99044.81;;;40.27;17.23
69879;BME280;57161;43.136;24.706;2022-07-23T13:30:51;99040.28;;;39.97;17.64
69879;BME280;57161;43.136;24.706;2022-07-23T13:33:22;99048.44;;;40.27;17.83
69879;BME280;57161;43.136;24.706;2022-07-23T13:35:48;99053.00;;;40.18;18.18
69879;BME280;57161;43.136;24.706;2022-07-23T13:38:14;99047.28;;;40.12;18.30
69879;BME280;57161;43.136;24.706;2022-07-23T13:40:42;99041.72;;;39.98;18.18
69879;BME280;57161;43.136;24.706;2022-07-23T13:43:10;99041.75;;;39.96;18.03
69879;BME280;57161;43.136;24.706;2022-07-23T13:45:36;99043.25;;;39.92;17.98
69879;BME280;57161;43.136;24.706;2022-07-23T13:48:04;99044.28;;;40.16;18.35
69879;BME280;57161;43.136;24.706;2022-07-23T13:50:30;99031.81;;;40.55;17.50